sensor_id;sensor_type;location;lat;lon;timestamp;P1;durP1;ratioP1;P2;durP2;ratioP2
53765;SDS011;39682;51.490;7.310;2023-03-14T00:02:10;4.93;;;0.75;;
53765;SDS011;39682;51.490;7.310;2023-03-14T00:04:37;4.32;;;1.10;;
53765;SDS011;39682;51.490;7.310;2023-03-14T00:07:03;4.10;;;1.10;;
53765;SDS011;39682;51.490;7.310;2023-03-14T00:09:29;3.20;;;0.65;;
53765;SDS011;39682;51.490;7.310;2023-03-14T00:11:55;3.88;;;1.20;;
53765;SDS011;39682;51.490;7.310;2023-03-14T00:14:22;4.15;;;1.15;;
53765;SDS011;39682;51.490;7.310;2023-03-14T00:16:49;4.40;;;1.10;;
53765;SDS011;39682;51.490;7.310;2023-03-14T00:19:15;5.15;;;1.25;;
53765;SDS011;39682;51.490;7.310;2023-03-14T00:21:41;4.43;;;0.75;;
53765;SDS011;39682;51.490;7.310;2023-03-14T00:24:07;3.85;;;1.08;;
53765;SDS011;39682;51.490;7.310;2023-03-14T00:26:33;5.00;;;1.40;;
53765;SDS011;39682;51.490;7.310;2023-03-14T00:28:59;5.15;;;0.88;;
53765;SDS011;39682;51.490;7.310;2023-03-14T00:31:25;6.18;;;0.80;;
53765;SDS011;39682;51.490;7.310;2023-03-14T00:33:52;8.27;;;1.10;;
53765;SDS011;39682;51.490;7.310;2023-03-14T00:36:18;4.43;;;1.23;;
53765;SDS011;39682;51.490;7.310;2023-03-14T00:38:47;5.82;;;1.10;;
53765;SDS011;39682;51.490;7.310;2023-03-14T00:41:15;4.55;;;0.77;;
53765;SDS011;39682;51.490;7.310;2023-03-14T00:43:41;4.85;;;1.13;;
53765;SDS011;39682;51.490;7.310;2023-03-14T00:46:07;4.78;;;1.13;;
53765;SDS011;39682;51.490;7.310;2023-03-14T00:48:33;8.88;;;1.02;;
53765;SDS011;39682;51.490;7.310;2023-03-14T00:50:59;5.43;;;1.13;;
53765;SDS011;39682;51.490;7.310;2023-03-14T00:53:25;5.43;;;0.90;;
53765;SDS011;39682;51.490;7.310;2023-03-14T00:55:51;6.35;;;1.33;;
53765;SDS011;39682;51.490;7.310;2023-03-14T00:58:18;6.22;;;1.50;;
53765;SDS011;39682;51.490;7.310;2023-03-14T01:00:44;4.78;;;1.00;;
53765;SDS011;39682;51.490;7.310;2023-03-14T01:03:10;4.07;;;1.08;;
53765;SDS011;39682;51.490;7.310;2023-03-14T01:05:36;4.85;;;1.23;;
53765;SDS011;39682;51.490;7.310;2023-03-14T01:08:03;3.67;;;1.10;;
53765;SDS011;39682;51.490;7.310;2023-03-14T01:10:29;5.60;;;0.98;;
53765;SDS011;39682;51.490;7.310;2023-03-14T01:12:55;3.92;;;0.50;;
53765;SDS011;39682;51.490;7.310;2023-03-14T01:15:21;4.72;;;0.45;;
53765;SDS011;39682;51.490;7.310;2023-03-14T01:17:47;2.55;;;0.30;;
53765;SDS011;39682;51.490;7.310;2023-03-14T01:20:14;1.30;;;0.32;;
53765;SDS011;39682;51.490;7.310;2023-03-14T01:22:40;4.10;;;1.30;;
53765;SDS011;39682;51.490;7.310;2023-03-14T01:25:07;0.98;;;0.40;;
53765;SDS011;39682;51.490;7.310;2023-03-14T01:27:34;1.65;;;0.30;;
53765;SDS011;39682;51.490;7.310;2023-03-14T01:30:00;1.55;;;0.40;;
53765;SDS011;39682;51.490;7.310;2023-03-14T01:32:27;3.33;;;0.80;;
53765;SDS011;39682;51.490;7.310;2023-03-14T01:34:53;4.00;;;0.80;;
53765;SDS011;39682;51.490;7.310;2023-03-14T01:37:19;4.10;;;0.70;;
53765;SDS011;39682;51.490;7.310;2023-03-14T01:39:46;7.60;;;1.20;;
53765;SDS011;39682;51.490;7.310;2023-03-14T01:42:12;6.22;;;0.88;;
53765;SDS011;39682;51.490;7.310;2023-03-14T01:44:48;3.47;;;1.02;;
53765;SDS011;39682;51.490;7.310;2023-03-14T01:47:14;3.08;;;0.70;;
53765;SDS011;39682;51.490;7.310;2023-03-14T01:49:40;5.07;;;0.75;;
53765;SDS011;39682;51.490;7.310;2023-03-14T01:52:07;3.80;;;0.80;;
53765;SDS011;39682;51.490;7.310;2023-03-14T01:54:36;3.92;;;0.60;;
53765;SDS011;39682;51.490;7.310;2023-03-14T01:59:29;3.30;;;0.52;;
53765;SDS011;39682;51.490;7.310;2023-03-14T02:01:55;6.03;;;1.15;;
53765;SDS011;39682;51.490;7.310;2023-03-14T02:04:22;3.95;;;0.60;;
53765;SDS011;39682;51.490;7.310;2023-03-14T02:06:50;4.57;;;0.95;;
53765;SDS011;39682;51.490;7.310;2023-03-14T02:09:17;5.60;;;0.88;;
53765;SDS011;39682;51.490;7.310;2023-03-14T02:11:43;5.55;;;0.63;;
53765;SDS011;39682;51.490;7.310;2023-03-14T02:14:10;5.72;;;1.40;;
53765;SDS011;39682;51.490;7.310;2023-03-14T02:16:39;4.30;;;1.27;;
53765;SDS011;39682;51.490;7.310;2023-03-14T02:19:05;4.60;;;0.90;;
53765;SDS011;39682;51.490;7.310;2023-03-14T02:22:06;7.05;;;0.82;;
53765;SDS011;39682;51.490;7.310;2023-03-14T02:24:33;5.90;;;0.95;;
53765;SDS011;39682;51.490;7.310;2023-03-14T02:27:02;8.98;;;2.08;;
53765;SDS011;39682;51.490;7.310;2023-03-14T02:29:28;5.15;;;0.80;;
53765;SDS011;39682;51.490;7.310;2023-03-14T02:31:54;5.28;;;1.08;;
53765;SDS011;39682;51.490;7.310;2023-03-14T02:37:25;11.15;;;1.17;;
53765;SDS011;39682;51.490;7.310;2023-03-14T02:39:52;2.50;;;0.70;;
53765;SDS011;39682;51.490;7.310;2023-03-14T02:42:18;4.97;;;0.85;;
53765;SDS011;39682;51.490;7.310;2023-03-14T02:47:16;7.38;;;0.65;;
53765;SDS011;39682;51.490;7.310;2023-03-14T02:49:44;3.50;;;0.68;;
53765;SDS011;39682;51.490;7.310;2023-03-14T02:52:10;9.38;;;2.05;;
53765;SDS011;39682;51.490;7.310;2023-03-14T02:54:36;4.68;;;0.90;;
53765;SDS011;39682;51.490;7.310;2023-03-14T02:57:02;6.70;;;1.63;;
53765;SDS011;39682;51.490;7.310;2023-03-14T02:59:28;7.10;;;1.17;;
53765;SDS011;39682;51.490;7.310;2023-03-14T03:01:54;4.65;;;1.00;;
53765;SDS011;39682;51.490;7.310;2023-03-14T03:04:20;7.40;;;1.77;;
53765;SDS011;39682;51.490;7.310;2023-03-14T03:06:46;6.40;;;1.33;;
53765;SDS011;39682;51.490;7.310;2023-03-14T03:09:12;6.97;;;0.77;;
53765;SDS011;39682;51.490;7.310;2023-03-14T03:11:38;4.05;;;0.93;;
53765;SDS011;39682;51.490;7.310;2023-03-14T03:14:04;4.72;;;0.95;;
53765;SDS011;39682;51.490;7.310;2023-03-14T03:16:30;7.10;;;1.20;;
53765;SDS011;39682;51.490;7.310;2023-03-14T03:18:56;7.72;;;0.85;;
53765;SDS011;39682;51.490;7.310;2023-03-14T03:21:22;7.00;;;0.95;;
53765;SDS011;39682;51.490;7.310;2023-03-14T03:23:48;7.00;;;1.15;;
53765;SDS011;39682;51.490;7.310;2023-03-14T03:26:14;4.97;;;1.10;;
53765;SDS011;39682;51.490;7.310;2023-03-14T03:28:40;2.58;;;0.77;;
53765;SDS011;39682;51.490;7.310;2023-03-14T03:31:07;4.55;;;1.45;;
53765;SDS011;39682;51.490;7.310;2023-03-14T03:33:33;4.10;;;1.35;;
53765;SDS011;39682;51.490;7.310;2023-03-14T03:35:59;8.77;;;0.90;;
53765;SDS011;39682;51.490;7.310;2023-03-14T03:38:25;4.22;;;0.73;;
53765;SDS011;39682;51.490;7.310;2023-03-14T03:40:51;8.60;;;0.90;;
53765;SDS011;39682;51.490;7.310;2023-03-14T03:43:17;8.00;;;0.80;;
53765;SDS011;39682;51.490;7.310;2023-03-14T03:45:43;4.55;;;0.88;;
53765;SDS011;39682;51.490;7.310;2023-03-14T03:48:09;5.50;;;0.93;;
53765;SDS011;39682;51.490;7.310;2023-03-14T03:50:35;5.32;;;0.50;;
53765;SDS011;39682;51.490;7.310;2023-03-14T03:53:01;5.05;;;1.10;;
53765;SDS011;39682;51.490;7.310;2023-03-14T03:55:27;6.30;;;1.23;;
53765;SDS011;39682;51.490;7.310;2023-03-14T03:57:53;7.95;;;2.20;;
53765;SDS011;39682;51.490;7.310;2023-03-14T04:00:19;2.35;;;0.80;;
53765;SDS011;39682;51.490;7.310;2023-03-14T04:02:45;3.90;;;0.73;;
53765;SDS011;39682;51.490;7.310;2023-03-14T04:05:11;6.93;;;0.80;;
53765;SDS011;39682;51.490;7.310;2023-03-14T04:07:37;4.25;;;0.88;;
53765;SDS011;39682;51.490;7.310;2023-03-14T04:10:03;4.25;;;1.02;;
53765;SDS011;39682;51.490;7.310;2023-03-14T04:12:30;5.93;;;1.00;;
53765;SDS011;39682;51.490;7.310;2023-03-14T04:14:56;4.18;;;0.90;;
53765;SDS011;39682;51.490;7.310;2023-03-14T04:17:22;4.32;;;0.70;;
53765;SDS011;39682;51.490;7.310;2023-03-14T04:19:48;4.00;;;0.90;;
53765;SDS011;39682;51.490;7.310;2023-03-14T04:22:16;8.20;;;2.40;;
53765;SDS011;39682;51.490;7.310;2023-03-14T04:24:42;5.72;;;1.10;;
53765;SDS011;39682;51.490;7.310;2023-03-14T04:27:08;4.65;;;0.60;;
53765;SDS011;39682;51.490;7.310;2023-03-14T04:29:34;2.97;;;0.60;;
53765;SDS011;39682;51.490;7.310;2023-03-14T04:32:00;2.65;;;0.57;;
53765;SDS011;39682;51.490;7.310;2023-03-14T04:34:26;2.70;;;0.32;;
53765;SDS011;39682;51.490;7.310;2023-03-14T04:36:52;3.35;;;0.65;;
53765;SDS011;39682;51.490;7.310;2023-03-14T04:39:17;2.05;;;0.32;;
53765;SDS011;39682;51.490;7.310;2023-03-14T04:41:44;3.63;;;0.50;;
53765;SDS011;39682;51.490;7.310;2023-03-14T04:44:10;2.50;;;1.23;;
53765;SDS011;39682;51.490;7.310;2023-03-14T04:46:36;0.85;;;0.17;;
53765;SDS011;39682;51.490;7.310;2023-03-14T04:49:03;1.08;;;0.28;;
53765;SDS011;39682;51.490;7.310;2023-03-14T04:51:29;2.40;;;0.10;;
53765;SDS011;39682;51.490;7.310;2023-03-14T04:53:55;1.85;;;0.22;;
53765;SDS011;39682;51.490;7.310;2023-03-14T04:56:21;4.22;;;0.47;;
53765;SDS011;39682;51.490;7.310;2023-03-14T04:58:47;2.17;;;0.20;;
53765;SDS011;39682;51.490;7.310;2023-03-14T05:01:13;3.47;;;0.40;;
53765;SDS011;39682;51.490;7.310;2023-03-14T05:03:39;4.00;;;0.98;;
53765;SDS011;39682;51.490;7.310;2023-03-14T05:06:05;1.85;;;0.35;;
53765;SDS011;39682;51.490;7.310;2023-03-14T05:08:31;1.85;;;0.40;;
53765;SDS011;39682;51.490;7.310;2023-03-14T05:10:57;0.20;;;0.00;;
53765;SDS011;39682;51.490;7.310;2023-03-14T05:13:23;0.38;;;0.00;;
53765;SDS011;39682;51.490;7.310;2023-03-14T05:15:49;0.98;;;0.32;;
53765;SDS011;39682;51.490;7.310;2023-03-14T05:18:16;0.30;;;0.10;;
53765;SDS011;39682;51.490;7.310;2023-03-14T05:20:42;0.70;;;0.10;;
53765;SDS011;39682;51.490;7.310;2023-03-14T05:23:08;1.58;;;0.00;;
53765;SDS011;39682;51.490;7.310;2023-03-14T05:25:34;0.55;;;0.17;;
53765;SDS011;39682;51.490;7.310;2023-03-14T05:28:00;1.92;;;0.13;;
53765;SDS011;39682;51.490;7.310;2023-03-14T05:30:26;1.33;;;0.10;;
53765;SDS011;39682;51.490;7.310;2023-03-14T05:32:53;0.68;;;0.20;;
53765;SDS011;39682;51.490;7.310;2023-03-14T05:35:19;0.90;;;0.17;;
53765;SDS011;39682;51.490;7.310;2023-03-14T05:37:45;0.85;;;0.30;;
53765;SDS011;39682;51.490;7.310;2023-03-14T05:40:11;1.23;;;0.10;;
53765;SDS011;39682;51.490;7.310;2023-03-14T05:42:37;1.45;;;0.10;;
53765;SDS011;39682;51.490;7.310;2023-03-14T05:45:03;2.03;;;0.30;;
53765;SDS011;39682;51.490;7.310;2023-03-14T05:47:29;0.95;;;0.20;;
53765;SDS011;39682;51.490;7.310;2023-03-14T05:49:55;0.95;;;0.40;;
53765;SDS011;39682;51.490;7.310;2023-03-14T05:52:21;0.10;;;0.05;;
53765;SDS011;39682;51.490;7.310;2023-03-14T05:54:47;0.88;;;0.32;;
53765;SDS011;39682;51.490;7.310;2023-03-14T05:57:13;4.53;;;0.50;;
53765;SDS011;39682;51.490;7.310;2023-03-14T05:59:39;1.30;;;0.40;;
53765;SDS011;39682;51.490;7.310;2023-03-14T06:02:05;1.08;;;0.30;;
53765;SDS011;39682;51.490;7.310;2023-03-14T06:04:31;2.00;;;0.60;;
53765;SDS011;39682;51.490;7.310;2023-03-14T06:06:57;1.27;;;0.77;;
53765;SDS011;39682;51.490;7.310;2023-03-14T06:09:23;1.92;;;0.88;;
53765;SDS011;39682;51.490;7.310;2023-03-14T06:11:49;1.48;;;0.90;;
53765;SDS011;39682;51.490;7.310;2023-03-14T06:14:15;3.10;;;1.30;;
53765;SDS011;39682;51.490;7.310;2023-03-14T06:16:41;3.00;;;1.20;;
53765;SDS011;39682;51.490;7.310;2023-03-14T06:19:07;4.15;;;1.27;;
53765;SDS011;39682;51.490;7.310;2023-03-14T06:21:33;4.13;;;1.13;;
53765;SDS011;39682;51.490;7.310;2023-03-14T06:23:59;3.78;;;1.20;;
53765;SDS011;39682;51.490;7.310;2023-03-14T06:26:25;4.35;;;1.40;;
53765;SDS011;39682;51.490;7.310;2023-03-14T06:28:51;2.10;;;0.70;;
53765;SDS011;39682;51.490;7.310;2023-03-14T06:31:18;3.90;;;0.82;;
53765;SDS011;39682;51.490;7.310;2023-03-14T06:33:44;2.97;;;0.95;;
53765;SDS011;39682;51.490;7.310;2023-03-14T06:36:10;3.50;;;0.70;;
53765;SDS011;39682;51.490;7.310;2023-03-14T06:38:36;2.97;;;1.15;;
53765;SDS011;39682;51.490;7.310;2023-03-14T06:41:03;2.55;;;0.80;;
53765;SDS011;39682;51.490;7.310;2023-03-14T06:43:29;4.65;;;0.88;;
53765;SDS011;39682;51.490;7.310;2023-03-14T06:45:55;4.13;;;1.30;;
53765;SDS011;39682;51.490;7.310;2023-03-14T06:48:21;3.08;;;0.95;;
53765;SDS011;39682;51.490;7.310;2023-03-14T06:50:50;3.42;;;0.68;;
53765;SDS011;39682;51.490;7.310;2023-03-14T06:53:16;3.65;;;0.95;;
53765;SDS011;39682;51.490;7.310;2023-03-14T06:55:42;4.88;;;0.60;;
53765;SDS011;39682;51.490;7.310;2023-03-14T06:58:10;2.17;;;0.82;;
53765;SDS011;39682;51.490;7.310;2023-03-14T07:00:36;4.05;;;0.82;;
53765;SDS011;39682;51.490;7.310;2023-03-14T07:03:02;2.33;;;0.60;;
53765;SDS011;39682;51.490;7.310;2023-03-14T07:05:28;1.95;;;0.65;;
53765;SDS011;39682;51.490;7.310;2023-03-14T07:07:54;2.47;;;0.50;;
53765;SDS011;39682;51.490;7.310;2023-03-14T07:10:20;4.15;;;0.73;;
53765;SDS011;39682;51.490;7.310;2023-03-14T07:12:46;4.45;;;0.52;;
53765;SDS011;39682;51.490;7.310;2023-03-14T07:15:12;3.25;;;1.92;;
53765;SDS011;39682;51.490;7.310;2023-03-14T07:17:39;3.60;;;0.70;;
53765;SDS011;39682;51.490;7.310;2023-03-14T07:20:05;2.25;;;0.77;;
53765;SDS011;39682;51.490;7.310;2023-03-14T07:22:32;2.03;;;1.15;;
53765;SDS011;39682;51.490;7.310;2023-03-14T07:24:57;1.77;;;0.57;;
53765;SDS011;39682;51.490;7.310;2023-03-14T07:27:23;1.30;;;0.60;;
53765;SDS011;39682;51.490;7.310;2023-03-14T07:29:49;3.88;;;0.55;;
53765;SDS011;39682;51.490;7.310;2023-03-14T07:32:15;2.50;;;0.52;;
53765;SDS011;39682;51.490;7.310;2023-03-14T07:34:42;3.70;;;0.50;;
53765;SDS011;39682;51.490;7.310;2023-03-14T07:37:08;1.88;;;0.50;;
53765;SDS011;39682;51.490;7.310;2023-03-14T07:39:34;1.77;;;0.47;;
53765;SDS011;39682;51.490;7.310;2023-03-14T07:42:00;1.65;;;1.10;;
53765;SDS011;39682;51.490;7.310;2023-03-14T07:44:26;2.97;;;0.60;;
53765;SDS011;39682;51.490;7.310;2023-03-14T07:46:52;2.90;;;1.33;;
53765;SDS011;39682;51.490;7.310;2023-03-14T07:49:18;2.63;;;0.50;;
53765;SDS011;39682;51.490;7.310;2023-03-14T07:51:47;1.80;;;0.90;;
53765;SDS011;39682;51.490;7.310;2023-03-14T07:54:12;1.08;;;0.73;;
53765;SDS011;39682;51.490;7.310;2023-03-14T07:56:38;0.47;;;0.22;;
53765;SDS011;39682;51.490;7.310;2023-03-14T07:59:04;1.08;;;0.40;;
53765;SDS011;39682;51.490;7.310;2023-03-14T08:01:30;1.08;;;0.63;;
53765;SDS011;39682;51.490;7.310;2023-03-14T08:03:56;3.17;;;0.82;;
53765;SDS011;39682;51.490;7.310;2023-03-14T08:06:22;2.42;;;0.82;;
53765;SDS011;39682;51.490;7.310;2023-03-14T08:08:48;1.35;;;0.63;;
53765;SDS011;39682;51.490;7.310;2023-03-14T08:11:14;1.50;;;0.75;;
53765;SDS011;39682;51.490;7.310;2023-03-14T08:13:40;2.28;;;1.40;;
53765;SDS011;39682;51.490;7.310;2023-03-14T08:16:06;2.15;;;1.05;;
53765;SDS011;39682;51.490;7.310;2023-03-14T08:18:33;2.17;;;1.52;;
53765;SDS011;39682;51.490;7.310;2023-03-14T08:20:58;2.50;;;1.23;;
53765;SDS011;39682;51.490;7.310;2023-03-14T08:23:24;3.80;;;1.75;;
53765;SDS011;39682;51.490;7.310;2023-03-14T08:25:51;2.72;;;1.23;;
53765;SDS011;39682;51.490;7.310;2023-03-14T08:28:17;2.72;;;1.90;;
53765;SDS011;39682;51.490;7.310;2023-03-14T08:30:44;1.70;;;1.25;;
53765;SDS011;39682;51.490;7.310;2023-03-14T08:33:10;3.70;;;2.50;;
53765;SDS011;39682;51.490;7.310;2023-03-14T08:35:37;3.10;;;1.90;;
53765;SDS011;39682;51.490;7.310;2023-03-14T08:38:03;4.88;;;2.20;;
53765;SDS011;39682;51.490;7.310;2023-03-14T08:40:28;1.88;;;0.93;;
53765;SDS011;39682;51.490;7.310;2023-03-14T08:42:54;3.42;;;1.40;;
53765;SDS011;39682;51.490;7.310;2023-03-14T08:45:20;3.28;;;2.20;;
53765;SDS011;39682;51.490;7.310;2023-03-14T08:47:48;1.90;;;1.40;;
53765;SDS011;39682;51.490;7.310;2023-03-14T08:50:14;1.35;;;0.90;;
53765;SDS011;39682;51.490;7.310;2023-03-14T08:52:40;1.85;;;1.35;;
53765;SDS011;39682;51.490;7.310;2023-03-14T08:55:07;1.42;;;1.00;;
53765;SDS011;39682;51.490;7.310;2023-03-14T08:57:33;3.45;;;0.93;;
53765;SDS011;39682;51.490;7.310;2023-03-14T08:59:59;1.88;;;0.95;;
53765;SDS011;39682;51.490;7.310;2023-03-14T09:02:26;2.47;;;0.50;;
53765;SDS011;39682;51.490;7.310;2023-03-14T09:04:52;1.92;;;0.85;;
53765;SDS011;39682;51.490;7.310;2023-03-14T09:07:18;1.70;;;0.60;;
53765;SDS011;39682;51.490;7.310;2023-03-14T09:09:44;1.58;;;0.60;;
53765;SDS011;39682;51.490;7.310;2023-03-14T09:12:11;0.57;;;0.30;;
53765;SDS011;39682;51.490;7.310;2023-03-14T09:14:37;1.35;;;0.52;;
53765;SDS011;39682;51.490;7.310;2023-03-14T09:17:03;2.53;;;0.90;;
53765;SDS011;39682;51.490;7.310;2023-03-14T09:19:29;1.52;;;0.70;;
53765;SDS011;39682;51.490;7.310;2023-03-14T09:21:55;5.65;;;1.10;;
53765;SDS011;39682;51.490;7.310;2023-03-14T09:24:21;1.33;;;0.95;;
53765;SDS011;39682;51.490;7.310;2023-03-14T09:26:47;5.18;;;1.45;;
53765;SDS011;39682;51.490;7.310;2023-03-14T09:29:13;2.53;;;1.20;;
53765;SDS011;39682;51.490;7.310;2023-03-14T09:31:39;2.85;;;1.40;;
53765;SDS011;39682;51.490;7.310;2023-03-14T09:34:05;2.03;;;1.17;;
53765;SDS011;39682;51.490;7.310;2023-03-14T09:36:31;1.55;;;0.50;;
53765;SDS011;39682;51.490;7.310;2023-03-14T09:38:57;1.42;;;0.70;;
53765;SDS011;39682;51.490;7.310;2023-03-14T09:41:27;0.60;;;0.40;;
53765;SDS011;39682;51.490;7.310;2023-03-14T09:44:15;1.50;;;0.90;;
53765;SDS011;39682;51.490;7.310;2023-03-14T09:46:43;0.30;;;0.20;;
53765;SDS011;39682;51.490;7.310;2023-03-14T09:49:10;0.95;;;0.10;;
53765;SDS011;39682;51.490;7.310;2023-03-14T09:51:37;2.10;;;0.15;;
53765;SDS011;39682;51.490;7.310;2023-03-14T09:54:03;0.22;;;0.00;;
53765;SDS011;39682;51.490;7.310;2023-03-14T09:56:31;0.10;;;0.10;;
53765;SDS011;39682;51.490;7.310;2023-03-14T09:58:58;0.98;;;0.15;;
53765;SDS011;39682;51.490;7.310;2023-03-14T10:01:26;0.70;;;0.10;;
53765;SDS011;39682;51.490;7.310;2023-03-14T10:03:56;0.40;;;0.15;;
53765;SDS011;39682;51.490;7.310;2023-03-14T10:06:26;0.20;;;0.08;;
53765;SDS011;39682;51.490;7.310;2023-03-14T10:08:52;1.85;;;0.40;;
53765;SDS011;39682;51.490;7.310;2023-03-14T10:11:19;0.30;;;0.13;;
53765;SDS011;39682;51.490;7.310;2023-03-14T10:13:50;1.35;;;0.43;;
53765;SDS011;39682;51.490;7.310;2023-03-14T10:16:18;0.38;;;0.30;;
53765;SDS011;39682;51.490;7.310;2023-03-14T10:18:53;0.47;;;0.30;;
53765;SDS011;39682;51.490;7.310;2023-03-14T10:21:27;2.70;;;0.40;;
53765;SDS011;39682;51.490;7.310;2023-03-14T10:23:54;1.42;;;0.55;;
53765;SDS011;39682;51.490;7.310;2023-03-14T10:26:23;0.63;;;0.35;;
53765;SDS011;39682;51.490;7.310;2023-03-14T10:28:53;1.58;;;0.80;;
53765;SDS011;39682;51.490;7.310;2023-03-14T10:31:26;1.48;;;0.85;;
53765;SDS011;39682;51.490;7.310;2023-03-14T10:33:59;0.88;;;0.45;;
53765;SDS011;39682;51.490;7.310;2023-03-14T10:36:27;3.42;;;0.57;;
53765;SDS011;39682;51.490;7.310;2023-03-14T10:38:58;2.45;;;0.68;;
53765;SDS011;39682;51.490;7.310;2023-03-14T10:41:31;1.25;;;0.30;;
53765;SDS011;39682;51.490;7.310;2023-03-14T10:43:58;1.00;;;0.50;;
53765;SDS011;39682;51.490;7.310;2023-03-14T10:46:25;0.70;;;0.30;;
53765;SDS011;39682;51.490;7.310;2023-03-14T10:48:53;1.75;;;0.57;;
53765;SDS011;39682;51.490;7.310;2023-03-14T10:51:22;0.52;;;0.35;;
53765;SDS011;39682;51.490;7.310;2023-03-14T10:53:55;1.40;;;0.90;;
53765;SDS011;39682;51.490;7.310;2023-03-14T10:56:21;0.57;;;0.43;;
53765;SDS011;39682;51.490;7.310;2023-03-14T10:58:52;1.00;;;0.40;;
53765;SDS011;39682;51.490;7.310;2023-03-14T11:01:38;1.10;;;0.35;;
53765;SDS011;39682;51.490;7.310;2023-03-14T11:09:02;0.93;;;0.47;;
53765;SDS011;39682;51.490;7.310;2023-03-14T11:11:30;0.47;;;0.30;;
53765;SDS011;39682;51.490;7.310;2023-03-14T11:21:56;1.37;;;0.50;;
53765;SDS011;39682;51.490;7.310;2023-03-14T11:31:48;3.38;;;1.13;;
53765;SDS011;39682;51.490;7.310;2023-03-14T11:34:23;2.33;;;1.17;;
53765;SDS011;39682;51.490;7.310;2023-03-14T11:36:53;2.45;;;1.10;;
53765;SDS011;39682;51.490;7.310;2023-03-14T11:39:20;0.73;;;0.52;;
53765;SDS011;39682;51.490;7.310;2023-03-14T11:41:47;0.93;;;0.35;;
53765;SDS011;39682;51.490;7.310;2023-03-14T11:46:49;1.63;;;0.80;;
53765;SDS011;39682;51.490;7.310;2023-03-14T11:49:22;1.63;;;0.43;;
53765;SDS011;39682;51.490;7.310;2023-03-14T11:51:51;3.35;;;0.75;;
53765;SDS011;39682;51.490;7.310;2023-03-14T11:54:27;0.28;;;0.20;;
53765;SDS011;39682;51.490;7.310;2023-03-14T11:56:59;0.40;;;0.20;;
53765;SDS011;39682;51.490;7.310;2023-03-14T11:59:45;2.55;;;0.52;;
53765;SDS011;39682;51.490;7.310;2023-03-14T12:02:16;3.13;;;0.40;;
53765;SDS011;39682;51.490;7.310;2023-03-14T12:04:54;1.83;;;0.40;;
53765;SDS011;39682;51.490;7.310;2023-03-14T12:07:21;1.35;;;0.43;;
53765;SDS011;39682;51.490;7.310;2023-03-14T12:09:49;2.47;;;0.70;;
53765;SDS011;39682;51.490;7.310;2023-03-14T12:12:18;1.30;;;0.47;;
53765;SDS011;39682;51.490;7.310;2023-03-14T12:14:46;1.08;;;0.65;;
53765;SDS011;39682;51.490;7.310;2023-03-14T12:17:22;0.40;;;0.10;;
53765;SDS011;39682;51.490;7.310;2023-03-14T12:22:35;3.97;;;0.57;;
53765;SDS011;39682;51.490;7.310;2023-03-14T12:27:47;0.82;;;0.50;;
53765;SDS011;39682;51.490;7.310;2023-03-14T12:30:24;3.72;;;0.52;;
53765;SDS011;39682;51.490;7.310;2023-03-14T12:38:03;0.80;;;0.20;;
53765;SDS011;39682;51.490;7.310;2023-03-14T12:40:31;3.97;;;0.40;;
53765;SDS011;39682;51.490;7.310;2023-03-14T12:43:02;1.40;;;0.52;;
53765;SDS011;39682;51.490;7.310;2023-03-14T12:45:32;2.85;;;0.40;;
53765;SDS011;39682;51.490;7.310;2023-03-14T12:48:19;4.18;;;0.60;;
53765;SDS011;39682;51.490;7.310;2023-03-14T12:50:53;2.72;;;0.45;;
53765;SDS011;39682;51.490;7.310;2023-03-14T12:53:25;2.70;;;0.47;;
53765;SDS011;39682;51.490;7.310;2023-03-14T12:56:05;3.00;;;0.50;;
53765;SDS011;39682;51.490;7.310;2023-03-14T12:58:35;4.47;;;0.73;;
53765;SDS011;39682;51.490;7.310;2023-03-14T13:01:05;4.18;;;0.80;;
53765;SDS011;39682;51.490;7.310;2023-03-14T13:03:51;7.00;;;1.17;;
53765;SDS011;39682;51.490;7.310;2023-03-14T13:10:13;6.35;;;1.70;;
53765;SDS011;39682;51.490;7.310;2023-03-14T13:12:11;4.93;;;0.98;;
53765;SDS011;39682;51.490;7.310;2023-03-14T13:14:45;5.53;;;0.90;;
53765;SDS011;39682;51.490;7.310;2023-03-14T13:17:13;3.47;;;0.90;;
53765;SDS011;39682;51.490;7.310;2023-03-14T13:19:39;5.05;;;1.00;;
53765;SDS011;39682;51.490;7.310;2023-03-14T13:22:39;4.30;;;0.95;;
53765;SDS011;39682;51.490;7.310;2023-03-14T13:25:06;5.63;;;0.93;;
53765;SDS011;39682;51.490;7.310;2023-03-14T13:27:33;5.90;;;1.10;;
53765;SDS011;39682;51.490;7.310;2023-03-14T13:30:04;5.78;;;0.85;;
53765;SDS011;39682;51.490;7.310;2023-03-14T13:32:31;5.20;;;1.35;;
53765;SDS011;39682;51.490;7.310;2023-03-14T13:34:57;8.45;;;1.75;;
53765;SDS011;39682;51.490;7.310;2023-03-14T13:37:24;10.27;;;1.40;;
53765;SDS011;39682;51.490;7.310;2023-03-14T13:39:51;9.43;;;1.58;;
53765;SDS011;39682;51.490;7.310;2023-03-14T13:42:18;8.05;;;1.38;;
53765;SDS011;39682;51.490;7.310;2023-03-14T13:44:44;13.95;;;2.22;;
53765;SDS011;39682;51.490;7.310;2023-03-14T13:47:17;10.40;;;1.95;;
53765;SDS011;39682;51.490;7.310;2023-03-14T13:49:44;14.82;;;2.65;;
53765;SDS011;39682;51.490;7.310;2023-03-14T13:54:52;8.57;;;1.40;;
53765;SDS011;39682;51.490;7.310;2023-03-14T13:57:18;10.65;;;2.22;;
53765;SDS011;39682;51.490;7.310;2023-03-14T13:59:45;17.15;;;2.20;;
53765;SDS011;39682;51.490;7.310;2023-03-14T14:02:23;12.23;;;2.55;;
53765;SDS011;39682;51.490;7.310;2023-03-14T14:04:50;13.43;;;2.47;;
53765;SDS011;39682;51.490;7.310;2023-03-14T14:07:16;13.30;;;2.33;;
53765;SDS011;39682;51.490;7.310;2023-03-14T14:09:51;14.70;;;2.47;;
53765;SDS011;39682;51.490;7.310;2023-03-14T14:14:51;13.23;;;2.38;;
53765;SDS011;39682;51.490;7.310;2023-03-14T14:17:19;8.20;;;1.70;;
53765;SDS011;39682;51.490;7.310;2023-03-14T14:19:46;9.95;;;1.33;;
53765;SDS011;39682;51.490;7.310;2023-03-14T14:22:13;8.43;;;1.92;;
53765;SDS011;39682;51.490;7.310;2023-03-14T14:24:39;8.65;;;1.55;;
53765;SDS011;39682;51.490;7.310;2023-03-14T14:27:15;11.18;;;1.98;;
53765;SDS011;39682;51.490;7.310;2023-03-14T14:29:42;9.23;;;2.00;;
53765;SDS011;39682;51.490;7.310;2023-03-14T14:34:48;9.45;;;2.55;;
53765;SDS011;39682;51.490;7.310;2023-03-14T14:39:51;9.57;;;1.63;;
53765;SDS011;39682;51.490;7.310;2023-03-14T14:42:18;10.63;;;2.38;;
53765;SDS011;39682;51.490;7.310;2023-03-14T14:44:47;8.63;;;1.25;;
53765;SDS011;39682;51.490;7.310;2023-03-14T14:47:15;8.88;;;1.20;;
53765;SDS011;39682;51.490;7.310;2023-03-14T14:49:43;8.10;;;1.70;;
53765;SDS011;39682;51.490;7.310;2023-03-14T14:52:11;10.18;;;1.40;;
53765;SDS011;39682;51.490;7.310;2023-03-14T14:54:39;7.18;;;1.40;;
53765;SDS011;39682;51.490;7.310;2023-03-14T14:57:21;7.10;;;1.02;;
53765;SDS011;39682;51.490;7.310;2023-03-14T14:59:48;5.40;;;1.27;;
53765;SDS011;39682;51.490;7.310;2023-03-14T15:02:33;7.55;;;1.30;;
53765;SDS011;39682;51.490;7.310;2023-03-14T15:05:01;3.90;;;0.82;;
53765;SDS011;39682;51.490;7.310;2023-03-14T15:07:27;3.92;;;0.85;;
53765;SDS011;39682;51.490;7.310;2023-03-14T15:09:53;6.50;;;0.88;;
53765;SDS011;39682;51.490;7.310;2023-03-14T15:12:19;3.97;;;0.77;;
53765;SDS011;39682;51.490;7.310;2023-03-14T15:14:45;1.35;;;0.75;;
53765;SDS011;39682;51.490;7.310;2023-03-14T15:17:11;10.20;;;1.40;;
53765;SDS011;39682;51.490;7.310;2023-03-14T15:19:37;9.35;;;1.13;;
53765;SDS011;39682;51.490;7.310;2023-03-14T15:22:04;9.60;;;1.17;;
53765;SDS011;39682;51.490;7.310;2023-03-14T15:24:31;6.55;;;1.63;;
53765;SDS011;39682;51.490;7.310;2023-03-14T15:26:57;4.88;;;1.95;;
53765;SDS011;39682;51.490;7.310;2023-03-14T15:29:23;4.18;;;1.17;;
53765;SDS011;39682;51.490;7.310;2023-03-14T15:31:49;8.60;;;1.33;;
53765;SDS011;39682;51.490;7.310;2023-03-14T15:34:15;3.33;;;0.80;;
53765;SDS011;39682;51.490;7.310;2023-03-14T15:36:41;5.93;;;1.00;;
53765;SDS011;39682;51.490;7.310;2023-03-14T15:39:09;15.68;;;1.65;;
53765;SDS011;39682;51.490;7.310;2023-03-14T15:41:36;7.60;;;1.48;;
53765;SDS011;39682;51.490;7.310;2023-03-14T15:44:02;12.23;;;1.95;;
53765;SDS011;39682;51.490;7.310;2023-03-14T15:46:28;6.10;;;1.05;;